Terminal Aerodrome Forecast
Issued by NWS Huntsville, AL

Current Version | Previous Version | Text Only | Print | Product List | Glossary On
Versions: 1 2 3 4 5 6 7 8 9 10 11 12 13 14 15 16 17 18 19 20 21 22 23 24 25 26 27 28 29 30 31 32 33 34 35 36 37 38
000
FTUS44 KHUN 271159 AAA
TAFMSL
TAF AMD
KMSL 271159Z 2712/2812 02008KT P6SM SCT025 SCT250
     FM272200 VRB04KT P6SM OVC100=

USA.gov is the U.S. government's official web portal to all federal, state and local government web resources and services.